sensor_id;sensor_type;location;lat;lon;timestamp;P1;durP1;ratioP1;P2;durP2;ratioP2
3054;SDS011;1537;52.018;8.542;2023-03-14T00:00:50;9.50;;;4.40;;
3054;SDS011;1537;52.018;8.542;2023-03-14T00:04:15;6.40;;;3.90;;
3054;SDS011;1537;52.018;8.542;2023-03-14T00:07:39;6.60;;;4.77;;
3054;SDS011;1537;52.018;8.542;2023-03-14T00:11:06;5.60;;;4.20;;
3054;SDS011;1537;52.018;8.542;2023-03-14T00:14:31;7.13;;;3.80;;
3054;SDS011;1537;52.018;8.542;2023-03-14T00:17:55;15.70;;;4.30;;
3054;SDS011;1537;52.018;8.542;2023-03-14T00:21:20;7.13;;;3.90;;
3054;SDS011;1537;52.018;8.542;2023-03-14T00:24:43;6.53;;;4.57;;
3054;SDS011;1537;52.018;8.542;2023-03-14T00:28:08;10.20;;;5.83;;
3054;SDS011;1537;52.018;8.542;2023-03-14T00:31:35;5.70;;;3.73;;
3054;SDS011;1537;52.018;8.542;2023-03-14T00:34:58;6.37;;;3.90;;
3054;SDS011;1537;52.018;8.542;2023-03-14T00:38:24;5.47;;;4.37;;
3054;SDS011;1537;52.018;8.542;2023-03-14T00:41:49;4.93;;;4.43;;
3054;SDS011;1537;52.018;8.542;2023-03-14T00:45:12;10.77;;;4.80;;
3054;SDS011;1537;52.018;8.542;2023-03-14T00:48:36;8.70;;;4.30;;
3054;SDS011;1537;52.018;8.542;2023-03-14T00:52:00;6.53;;;3.87;;
3054;SDS011;1537;52.018;8.542;2023-03-14T00:55:25;8.43;;;4.20;;
3054;SDS011;1537;52.018;8.542;2023-03-14T00:58:49;6.53;;;4.07;;
3054;SDS011;1537;52.018;8.542;2023-03-14T01:02:16;9.63;;;4.10;;
3054;SDS011;1537;52.018;8.542;2023-03-14T01:05:41;7.40;;;4.60;;
3054;SDS011;1537;52.018;8.542;2023-03-14T01:09:05;5.90;;;3.73;;
3054;SDS011;1537;52.018;8.542;2023-03-14T01:12:30;8.30;;;3.80;;
3054;SDS011;1537;52.018;8.542;2023-03-14T01:15:54;7.80;;;4.50;;
3054;SDS011;1537;52.018;8.542;2023-03-14T01:19:18;7.30;;;4.27;;
3054;SDS011;1537;52.018;8.542;2023-03-14T01:22:41;5.60;;;4.10;;
3054;SDS011;1537;52.018;8.542;2023-03-14T01:26:08;5.87;;;4.40;;
3054;SDS011;1537;52.018;8.542;2023-03-14T01:29:34;5.73;;;4.13;;
3054;SDS011;1537;52.018;8.542;2023-03-14T01:32:58;6.47;;;4.00;;
3054;SDS011;1537;52.018;8.542;2023-03-14T01:36:22;5.00;;;3.70;;
3054;SDS011;1537;52.018;8.542;2023-03-14T01:39:46;9.30;;;5.20;;
3054;SDS011;1537;52.018;8.542;2023-03-14T01:43:14;18.40;;;5.80;;
3054;SDS011;1537;52.018;8.542;2023-03-14T01:46:41;5.53;;;4.10;;
3054;SDS011;1537;52.018;8.542;2023-03-14T01:50:08;6.63;;;4.17;;
3054;SDS011;1537;52.018;8.542;2023-03-14T01:53:35;8.27;;;4.57;;
3054;SDS011;1537;52.018;8.542;2023-03-14T01:57:03;6.93;;;4.97;;
3054;SDS011;1537;52.018;8.542;2023-03-14T02:00:31;10.40;;;4.80;;
3054;SDS011;1537;52.018;8.542;2023-03-14T02:03:57;11.00;;;4.70;;
3054;SDS011;1537;52.018;8.542;2023-03-14T02:07:25;6.77;;;5.17;;
3054;SDS011;1537;52.018;8.542;2023-03-14T02:11:03;6.77;;;4.30;;
3054;SDS011;1537;52.018;8.542;2023-03-14T02:14:45;6.47;;;5.63;;
3054;SDS011;1537;52.018;8.542;2023-03-14T02:18:20;9.63;;;4.90;;
3054;SDS011;1537;52.018;8.542;2023-03-14T02:22:07;12.30;;;4.80;;
3054;SDS011;1537;52.018;8.542;2023-03-14T02:25:41;5.77;;;4.67;;
3054;SDS011;1537;52.018;8.542;2023-03-14T02:29:12;6.20;;;4.63;;
3054;SDS011;1537;52.018;8.542;2023-03-14T02:32:37;6.97;;;3.40;;
3054;SDS011;1537;52.018;8.542;2023-03-14T02:36:04;6.60;;;3.50;;
3054;SDS011;1537;52.018;8.542;2023-03-14T02:39:32;5.30;;;2.63;;
3054;SDS011;1537;52.018;8.542;2023-03-14T02:43:00;5.07;;;2.30;;
3054;SDS011;1537;52.018;8.542;2023-03-14T02:46:27;7.57;;;2.20;;
3054;SDS011;1537;52.018;8.542;2023-03-14T02:49:51;6.10;;;1.97;;
3054;SDS011;1537;52.018;8.542;2023-03-14T02:53:19;4.23;;;1.83;;
3054;SDS011;1537;52.018;8.542;2023-03-14T02:56:45;5.50;;;1.90;;
3054;SDS011;1537;52.018;8.542;2023-03-14T03:00:09;4.40;;;1.60;;
3054;SDS011;1537;52.018;8.542;2023-03-14T03:03:36;5.73;;;2.07;;
3054;SDS011;1537;52.018;8.542;2023-03-14T03:07:00;6.30;;;2.00;;
3054;SDS011;1537;52.018;8.542;2023-03-14T03:10:24;6.13;;;2.10;;
3054;SDS011;1537;52.018;8.542;2023-03-14T03:13:48;5.10;;;1.67;;
3054;SDS011;1537;52.018;8.542;2023-03-14T03:17:12;5.23;;;1.70;;
3054;SDS011;1537;52.018;8.542;2023-03-14T03:20:37;5.40;;;1.33;;
3054;SDS011;1537;52.018;8.542;2023-03-14T03:24:01;3.70;;;1.43;;
3054;SDS011;1537;52.018;8.542;2023-03-14T03:27:29;8.10;;;1.83;;
3054;SDS011;1537;52.018;8.542;2023-03-14T03:30:54;3.83;;;1.43;;
3054;SDS011;1537;52.018;8.542;2023-03-14T03:34:17;5.73;;;2.00;;
3054;SDS011;1537;52.018;8.542;2023-03-14T03:37:46;6.00;;;2.20;;
3054;SDS011;1537;52.018;8.542;2023-03-14T03:41:10;4.10;;;1.60;;
3054;SDS011;1537;52.018;8.542;2023-03-14T03:44:33;5.47;;;2.50;;
3054;SDS011;1537;52.018;8.542;2023-03-14T03:47:57;5.27;;;2.00;;
3054;SDS011;1537;52.018;8.542;2023-03-14T03:51:21;9.33;;;2.70;;
3054;SDS011;1537;52.018;8.542;2023-03-14T03:54:46;3.80;;;1.63;;
3054;SDS011;1537;52.018;8.542;2023-03-14T03:58:10;4.53;;;1.87;;
3054;SDS011;1537;52.018;8.542;2023-03-14T04:01:34;5.73;;;2.27;;
3054;SDS011;1537;52.018;8.542;2023-03-14T04:04:57;3.83;;;1.60;;
3054;SDS011;1537;52.018;8.542;2023-03-14T04:08:21;4.03;;;1.93;;
3054;SDS011;1537;52.018;8.542;2023-03-14T04:11:46;7.20;;;2.30;;
3054;SDS011;1537;52.018;8.542;2023-03-14T04:15:16;4.97;;;1.90;;
3054;SDS011;1537;52.018;8.542;2023-03-14T04:18:43;4.97;;;2.17;;
3054;SDS011;1537;52.018;8.542;2023-03-14T04:22:07;7.57;;;2.60;;
3054;SDS011;1537;52.018;8.542;2023-03-14T04:25:40;6.97;;;2.40;;
3054;SDS011;1537;52.018;8.542;2023-03-14T04:29:05;6.17;;;2.67;;
3054;SDS011;1537;52.018;8.542;2023-03-14T04:32:29;7.73;;;2.50;;
3054;SDS011;1537;52.018;8.542;2023-03-14T04:35:54;7.90;;;2.40;;
3054;SDS011;1537;52.018;8.542;2023-03-14T04:39:19;5.20;;;2.00;;
3054;SDS011;1537;52.018;8.542;2023-03-14T04:42:49;9.10;;;2.30;;
3054;SDS011;1537;52.018;8.542;2023-03-14T04:46:14;8.60;;;1.77;;
3054;SDS011;1537;52.018;8.542;2023-03-14T04:49:39;5.47;;;1.80;;
3054;SDS011;1537;52.018;8.542;2023-03-14T04:53:05;5.43;;;1.77;;
3054;SDS011;1537;52.018;8.542;2023-03-14T04:56:29;4.70;;;1.77;;
3054;SDS011;1537;52.018;8.542;2023-03-14T04:59:55;9.97;;;2.20;;
3054;SDS011;1537;52.018;8.542;2023-03-14T05:03:37;7.03;;;2.10;;
3054;SDS011;1537;52.018;8.542;2023-03-14T05:07:22;7.60;;;2.20;;
3054;SDS011;1537;52.018;8.542;2023-03-14T05:10:57;7.53;;;2.27;;
3054;SDS011;1537;52.018;8.542;2023-03-14T05:14:35;6.30;;;1.40;;
3054;SDS011;1537;52.018;8.542;2023-03-14T05:18:27;7.83;;;2.00;;
3054;SDS011;1537;52.018;8.542;2023-03-14T05:22:03;5.10;;;1.87;;
3054;SDS011;1537;52.018;8.542;2023-03-14T05:25:42;6.73;;;2.20;;
3054;SDS011;1537;52.018;8.542;2023-03-14T05:29:30;5.03;;;1.90;;
3054;SDS011;1537;52.018;8.542;2023-03-14T05:33:01;4.83;;;2.13;;
3054;SDS011;1537;52.018;8.542;2023-03-14T05:36:53;7.93;;;2.57;;
3054;SDS011;1537;52.018;8.542;2023-03-14T05:40:57;4.83;;;2.10;;
3054;SDS011;1537;52.018;8.542;2023-03-14T05:44:34;6.10;;;2.53;;
3054;SDS011;1537;52.018;8.542;2023-03-14T05:48:33;5.73;;;1.80;;
3054;SDS011;1537;52.018;8.542;2023-03-14T05:52:26;5.73;;;2.10;;
3054;SDS011;1537;52.018;8.542;2023-03-14T05:55:59;4.90;;;2.20;;
3054;SDS011;1537;52.018;8.542;2023-03-14T05:59:39;5.00;;;2.20;;
3054;SDS011;1537;52.018;8.542;2023-03-14T06:03:28;4.90;;;1.70;;
3054;SDS011;1537;52.018;8.542;2023-03-14T06:06:52;4.40;;;1.90;;
3054;SDS011;1537;52.018;8.542;2023-03-14T06:10:16;4.30;;;2.13;;
3054;SDS011;1537;52.018;8.542;2023-03-14T06:13:41;4.63;;;1.90;;
3054;SDS011;1537;52.018;8.542;2023-03-14T06:17:05;4.33;;;2.03;;
3054;SDS011;1537;52.018;8.542;2023-03-14T06:20:36;4.77;;;2.30;;
3054;SDS011;1537;52.018;8.542;2023-03-14T06:24:03;5.40;;;2.17;;
3054;SDS011;1537;52.018;8.542;2023-03-14T06:27:33;6.23;;;2.50;;
3054;SDS011;1537;52.018;8.542;2023-03-14T06:30:59;4.20;;;1.60;;
3054;SDS011;1537;52.018;8.542;2023-03-14T06:34:29;3.70;;;1.20;;
3054;SDS011;1537;52.018;8.542;2023-03-14T06:37:53;4.03;;;1.10;;
3054;SDS011;1537;52.018;8.542;2023-03-14T06:41:16;4.10;;;1.97;;
3054;SDS011;1537;52.018;8.542;2023-03-14T06:44:42;5.30;;;1.40;;
3054;SDS011;1537;52.018;8.542;2023-03-14T06:48:08;4.17;;;1.40;;
3054;SDS011;1537;52.018;8.542;2023-03-14T06:51:37;3.80;;;1.40;;
3054;SDS011;1537;52.018;8.542;2023-03-14T06:55:03;4.53;;;1.10;;
3054;SDS011;1537;52.018;8.542;2023-03-14T06:58:28;5.03;;;1.50;;
3054;SDS011;1537;52.018;8.542;2023-03-14T07:01:52;3.90;;;1.63;;
3054;SDS011;1537;52.018;8.542;2023-03-14T07:05:17;3.63;;;1.47;;
3054;SDS011;1537;52.018;8.542;2023-03-14T07:08:42;5.80;;;1.70;;
3054;SDS011;1537;52.018;8.542;2023-03-14T07:12:05;8.30;;;1.90;;
3054;SDS011;1537;52.018;8.542;2023-03-14T07:15:29;4.60;;;1.90;;
3054;SDS011;1537;52.018;8.542;2023-03-14T07:18:59;5.47;;;2.07;;
3054;SDS011;1537;52.018;8.542;2023-03-14T07:22:24;6.70;;;2.60;;
3054;SDS011;1537;52.018;8.542;2023-03-14T07:25:48;4.20;;;1.90;;
3054;SDS011;1537;52.018;8.542;2023-03-14T07:29:14;6.47;;;2.93;;
3054;SDS011;1537;52.018;8.542;2023-03-14T07:32:38;5.70;;;1.67;;
3054;SDS011;1537;52.018;8.542;2023-03-14T07:36:02;6.00;;;2.47;;
3054;SDS011;1537;52.018;8.542;2023-03-14T07:39:27;4.50;;;2.10;;
3054;SDS011;1537;52.018;8.542;2023-03-14T07:42:59;5.20;;;2.43;;
3054;SDS011;1537;52.018;8.542;2023-03-14T07:46:32;8.10;;;3.40;;
3054;SDS011;1537;52.018;8.542;2023-03-14T07:49:56;5.30;;;1.90;;
3054;SDS011;1537;52.018;8.542;2023-03-14T07:53:20;5.30;;;1.90;;
3054;SDS011;1537;52.018;8.542;2023-03-14T07:56:46;10.67;;;2.73;;
3054;SDS011;1537;52.018;8.542;2023-03-14T08:00:10;3.93;;;1.70;;
3054;SDS011;1537;52.018;8.542;2023-03-14T08:03:37;4.67;;;1.70;;
3054;SDS011;1537;52.018;8.542;2023-03-14T08:07:00;5.87;;;1.60;;
3054;SDS011;1537;52.018;8.542;2023-03-14T08:10:24;5.33;;;1.37;;
3054;SDS011;1537;52.018;8.542;2023-03-14T08:13:49;5.20;;;1.30;;
3054;SDS011;1537;52.018;8.542;2023-03-14T08:17:13;5.10;;;1.67;;
3054;SDS011;1537;52.018;8.542;2023-03-14T08:20:37;5.23;;;1.50;;
3054;SDS011;1537;52.018;8.542;2023-03-14T08:24:00;4.70;;;2.33;;
3054;SDS011;1537;52.018;8.542;2023-03-14T08:27:24;5.53;;;2.10;;
3054;SDS011;1537;52.018;8.542;2023-03-14T08:30:49;4.80;;;1.90;;
3054;SDS011;1537;52.018;8.542;2023-03-14T08:34:13;7.10;;;1.83;;
3054;SDS011;1537;52.018;8.542;2023-03-14T08:37:37;4.60;;;2.50;;
3054;SDS011;1537;52.018;8.542;2023-03-14T08:41:01;4.20;;;1.60;;
3054;SDS011;1537;52.018;8.542;2023-03-14T08:44:26;5.43;;;2.00;;
3054;SDS011;1537;52.018;8.542;2023-03-14T08:47:51;5.63;;;2.70;;
3054;SDS011;1537;52.018;8.542;2023-03-14T08:51:15;4.60;;;2.00;;
3054;SDS011;1537;52.018;8.542;2023-03-14T08:54:39;6.23;;;2.90;;
3054;SDS011;1537;52.018;8.542;2023-03-14T08:58:03;4.33;;;1.90;;
3054;SDS011;1537;52.018;8.542;2023-03-14T09:01:26;5.20;;;2.30;;
3054;SDS011;1537;52.018;8.542;2023-03-14T09:04:52;5.57;;;2.57;;
3054;SDS011;1537;52.018;8.542;2023-03-14T09:08:16;4.60;;;2.40;;
3054;SDS011;1537;52.018;8.542;2023-03-14T09:11:40;5.30;;;2.67;;
3054;SDS011;1537;52.018;8.542;2023-03-14T09:15:03;4.80;;;2.70;;
3054;SDS011;1537;52.018;8.542;2023-03-14T09:18:28;5.20;;;3.10;;
3054;SDS011;1537;52.018;8.542;2023-03-14T09:21:53;11.17;;;3.60;;
3054;SDS011;1537;52.018;8.542;2023-03-14T09:25:17;7.73;;;3.40;;
3054;SDS011;1537;52.018;8.542;2023-03-14T09:28:41;6.20;;;4.03;;
3054;SDS011;1537;52.018;8.542;2023-03-14T09:32:05;4.73;;;2.63;;
3054;SDS011;1537;52.018;8.542;2023-03-14T09:35:29;4.33;;;2.30;;
3054;SDS011;1537;52.018;8.542;2023-03-14T09:38:54;5.97;;;2.90;;
3054;SDS011;1537;52.018;8.542;2023-03-14T09:42:18;4.77;;;2.60;;
3054;SDS011;1537;52.018;8.542;2023-03-14T09:45:46;4.80;;;2.20;;
3054;SDS011;1537;52.018;8.542;2023-03-14T09:49:19;4.87;;;2.90;;
3054;SDS011;1537;52.018;8.542;2023-03-14T09:52:45;5.07;;;2.80;;
3054;SDS011;1537;52.018;8.542;2023-03-14T09:56:13;4.60;;;2.47;;
3054;SDS011;1537;52.018;8.542;2023-03-14T09:59:40;3.80;;;1.60;;
3054;SDS011;1537;52.018;8.542;2023-03-14T10:03:18;4.07;;;1.83;;
3054;SDS011;1537;52.018;8.542;2023-03-14T10:06:48;4.40;;;2.43;;
3054;SDS011;1537;52.018;8.542;2023-03-14T10:10:13;5.10;;;2.67;;
3054;SDS011;1537;52.018;8.542;2023-03-14T10:13:49;4.90;;;2.33;;
3054;SDS011;1537;52.018;8.542;2023-03-14T10:17:24;4.50;;;2.57;;
3054;SDS011;1537;52.018;8.542;2023-03-14T10:21:01;4.83;;;2.63;;
3054;SDS011;1537;52.018;8.542;2023-03-14T10:24:29;5.40;;;2.90;;
3054;SDS011;1537;52.018;8.542;2023-03-14T10:27:54;5.70;;;3.20;;
3054;SDS011;1537;52.018;8.542;2023-03-14T10:31:19;6.23;;;2.90;;
3054;SDS011;1537;52.018;8.542;2023-03-14T10:35:03;5.20;;;2.97;;
3054;SDS011;1537;52.018;8.542;2023-03-14T10:38:31;5.27;;;2.93;;
3054;SDS011;1537;52.018;8.542;2023-03-14T10:42:01;4.33;;;1.53;;
3054;SDS011;1537;52.018;8.542;2023-03-14T10:45:29;3.87;;;1.73;;
3054;SDS011;1537;52.018;8.542;2023-03-14T10:48:56;5.67;;;1.60;;
3054;SDS011;1537;52.018;8.542;2023-03-14T10:52:21;3.40;;;1.47;;
3054;SDS011;1537;52.018;8.542;2023-03-14T10:56:02;5.03;;;1.60;;
3054;SDS011;1537;52.018;8.542;2023-03-14T10:59:27;4.13;;;1.30;;
3054;SDS011;1537;52.018;8.542;2023-03-14T11:03:00;3.70;;;1.10;;
3054;SDS011;1537;52.018;8.542;2023-03-14T11:06:34;4.13;;;1.10;;
3054;SDS011;1537;52.018;8.542;2023-03-14T11:10:07;4.17;;;1.40;;
3054;SDS011;1537;52.018;8.542;2023-03-14T11:13:42;4.73;;;1.03;;
3054;SDS011;1537;52.018;8.542;2023-03-14T11:17:11;3.67;;;1.00;;
3054;SDS011;1537;52.018;8.542;2023-03-14T11:20:44;4.03;;;1.20;;
3054;SDS011;1537;52.018;8.542;2023-03-14T11:24:20;4.03;;;1.20;;
3054;SDS011;1537;52.018;8.542;2023-03-14T11:28:05;4.43;;;1.53;;
3054;SDS011;1537;52.018;8.542;2023-03-14T11:31:37;4.03;;;1.00;;
3054;SDS011;1537;52.018;8.542;2023-03-14T11:35:04;3.40;;;1.07;;
3054;SDS011;1537;52.018;8.542;2023-03-14T11:38:40;3.73;;;0.87;;
3054;SDS011;1537;52.018;8.542;2023-03-14T11:42:14;3.10;;;0.80;;
3054;SDS011;1537;52.018;8.542;2023-03-14T11:45:40;3.10;;;0.70;;
3054;SDS011;1537;52.018;8.542;2023-03-14T11:49:06;3.00;;;0.63;;
3054;SDS011;1537;52.018;8.542;2023-03-14T11:52:37;3.70;;;1.00;;
3054;SDS011;1537;52.018;8.542;2023-03-14T11:56:09;3.10;;;1.00;;
3054;SDS011;1537;52.018;8.542;2023-03-14T11:59:45;6.73;;;2.13;;
3054;SDS011;1537;52.018;8.542;2023-03-14T12:03:14;4.83;;;1.60;;
3054;SDS011;1537;52.018;8.542;2023-03-14T12:06:46;5.40;;;1.70;;
3054;SDS011;1537;52.018;8.542;2023-03-14T12:10:11;3.97;;;1.23;;
3054;SDS011;1537;52.018;8.542;2023-03-14T12:13:36;4.60;;;1.47;;
3054;SDS011;1537;52.018;8.542;2023-03-14T12:17:05;3.97;;;1.17;;
3054;SDS011;1537;52.018;8.542;2023-03-14T12:20:36;7.73;;;2.50;;
3054;SDS011;1537;52.018;8.542;2023-03-14T12:24:01;7.63;;;1.40;;
3054;SDS011;1537;52.018;8.542;2023-03-14T12:27:41;10.60;;;2.00;;
3054;SDS011;1537;52.018;8.542;2023-03-14T12:39:00;4.27;;;1.63;;
3054;SDS011;1537;52.018;8.542;2023-03-14T12:42:36;12.33;;;3.53;;
3054;SDS011;1537;52.018;8.542;2023-03-14T12:46:08;8.27;;;2.50;;
3054;SDS011;1537;52.018;8.542;2023-03-14T12:49:41;7.87;;;2.53;;
3054;SDS011;1537;52.018;8.542;2023-03-14T12:53:12;8.40;;;2.23;;
3054;SDS011;1537;52.018;8.542;2023-03-14T12:57:06;9.40;;;2.80;;
3054;SDS011;1537;52.018;8.542;2023-03-14T13:00:43;6.63;;;3.07;;
3054;SDS011;1537;52.018;8.542;2023-03-14T13:04:08;8.13;;;2.87;;
3054;SDS011;1537;52.018;8.542;2023-03-14T13:07:35;11.20;;;2.53;;
3054;SDS011;1537;52.018;8.542;2023-03-14T13:11:16;13.23;;;3.63;;
3054;SDS011;1537;52.018;8.542;2023-03-14T13:14:43;8.50;;;2.83;;
3054;SDS011;1537;52.018;8.542;2023-03-14T13:18:09;8.43;;;3.47;;
3054;SDS011;1537;52.018;8.542;2023-03-14T13:21:36;12.00;;;3.30;;
3054;SDS011;1537;52.018;8.542;2023-03-14T13:25:01;9.43;;;3.03;;
3054;SDS011;1537;52.018;8.542;2023-03-14T13:28:27;5.50;;;2.20;;
3054;SDS011;1537;52.018;8.542;2023-03-14T13:31:53;7.00;;;2.77;;
3054;SDS011;1537;52.018;8.542;2023-03-14T13:35:21;13.17;;;2.63;;
3054;SDS011;1537;52.018;8.542;2023-03-14T13:38:46;15.90;;;3.40;;
3054;SDS011;1537;52.018;8.542;2023-03-14T13:42:19;11.03;;;4.10;;
3054;SDS011;1537;52.018;8.542;2023-03-14T13:45:49;10.27;;;3.53;;
3054;SDS011;1537;52.018;8.542;2023-03-14T13:49:17;10.70;;;3.60;;
3054;SDS011;1537;52.018;8.542;2023-03-14T13:52:44;10.70;;;3.60;;
3054;SDS011;1537;52.018;8.542;2023-03-14T13:56:10;12.67;;;5.03;;
3054;SDS011;1537;52.018;8.542;2023-03-14T13:59:34;15.53;;;4.13;;
3054;SDS011;1537;52.018;8.542;2023-03-14T14:02:59;17.13;;;5.83;;
3054;SDS011;1537;52.018;8.542;2023-03-14T14:06:26;18.20;;;4.30;;
3054;SDS011;1537;52.018;8.542;2023-03-14T14:09:52;14.67;;;3.83;;
3054;SDS011;1537;52.018;8.542;2023-03-14T14:13:17;16.10;;;4.73;;
3054;SDS011;1537;52.018;8.542;2023-03-14T14:16:44;18.90;;;5.60;;
3054;SDS011;1537;52.018;8.542;2023-03-14T14:20:16;9.73;;;4.30;;
3054;SDS011;1537;52.018;8.542;2023-03-14T14:23:44;16.13;;;5.67;;
3054;SDS011;1537;52.018;8.542;2023-03-14T14:27:10;12.47;;;3.60;;
3054;SDS011;1537;52.018;8.542;2023-03-14T14:30:36;11.13;;;3.80;;
3054;SDS011;1537;52.018;8.542;2023-03-14T14:34:00;11.30;;;3.80;;
3054;SDS011;1537;52.018;8.542;2023-03-14T14:37:27;13.90;;;4.17;;
3054;SDS011;1537;52.018;8.542;2023-03-14T14:40:53;12.47;;;4.17;;
3054;SDS011;1537;52.018;8.542;2023-03-14T14:44:26;11.50;;;3.40;;
3054;SDS011;1537;52.018;8.542;2023-03-14T14:47:54;15.73;;;3.87;;
3054;SDS011;1537;52.018;8.542;2023-03-14T14:51:24;11.00;;;3.90;;
3054;SDS011;1537;52.018;8.542;2023-03-14T14:54:57;7.80;;;3.07;;
3054;SDS011;1537;52.018;8.542;2023-03-14T14:58:23;9.07;;;3.40;;
3054;SDS011;1537;52.018;8.542;2023-03-14T15:01:48;7.63;;;3.43;;
3054;SDS011;1537;52.018;8.542;2023-03-14T15:05:13;11.63;;;3.97;;
3054;SDS011;1537;52.018;8.542;2023-03-14T15:08:38;12.70;;;4.27;;
3054;SDS011;1537;52.018;8.542;2023-03-14T15:12:03;10.00;;;4.20;;
3054;SDS011;1537;52.018;8.542;2023-03-14T15:15:27;10.03;;;3.60;;
3054;SDS011;1537;52.018;8.542;2023-03-14T15:18:52;12.93;;;4.00;;
3054;SDS011;1537;52.018;8.542;2023-03-14T15:22:18;13.30;;;3.33;;
3054;SDS011;1537;52.018;8.542;2023-03-14T15:25:42;9.40;;;3.33;;
3054;SDS011;1537;52.018;8.542;2023-03-14T15:29:18;19.33;;;5.13;;
3054;SDS011;1537;52.018;8.542;2023-03-14T15:32:41;8.27;;;3.13;;
3054;SDS011;1537;52.018;8.542;2023-03-14T15:36:06;16.73;;;4.10;;
3054;SDS011;1537;52.018;8.542;2023-03-14T15:39:37;9.53;;;3.70;;
3054;SDS011;1537;52.018;8.542;2023-03-14T15:43:00;12.80;;;3.70;;
3054;SDS011;1537;52.018;8.542;2023-03-14T15:46:25;8.63;;;3.23;;
3054;SDS011;1537;52.018;8.542;2023-03-14T15:49:52;15.80;;;3.30;;
3054;SDS011;1537;52.018;8.542;2023-03-14T15:53:15;11.57;;;3.77;;
3054;SDS011;1537;52.018;8.542;2023-03-14T15:56:39;5.17;;;2.10;;
3054;SDS011;1537;52.018;8.542;2023-03-14T16:00:03;8.93;;;3.73;;
3054;SDS011;1537;52.018;8.542;2023-03-14T16:03:30;6.63;;;2.63;;
3054;SDS011;1537;52.018;8.542;2023-03-14T16:06:54;16.50;;;3.43;;
3054;SDS011;1537;52.018;8.542;2023-03-14T16:10:18;10.27;;;3.03;;
3054;SDS011;1537;52.018;8.542;2023-03-14T16:13:41;14.30;;;3.40;;
3054;SDS011;1537;52.018;8.542;2023-03-14T16:17:05;8.37;;;2.50;;
3054;SDS011;1537;52.018;8.542;2023-03-14T16:20:33;8.07;;;2.73;;
3054;SDS011;1537;52.018;8.542;2023-03-14T16:24:09;16.60;;;2.97;;
3054;SDS011;1537;52.018;8.542;2023-03-14T16:27:32;6.03;;;2.23;;
3054;SDS011;1537;52.018;8.542;2023-03-14T16:30:59;10.30;;;3.23;;
3054;SDS011;1537;52.018;8.542;2023-03-14T16:34:24;13.30;;;3.00;;
3054;SDS011;1537;52.018;8.542;2023-03-14T16:37:48;10.37;;;3.63;;
3054;SDS011;1537;52.018;8.542;2023-03-14T16:41:13;8.10;;;3.23;;
3054;SDS011;1537;52.018;8.542;2023-03-14T16:44:38;7.93;;;2.93;;
3054;SDS011;1537;52.018;8.542;2023-03-14T16:48:01;9.80;;;3.67;;
3054;SDS011;1537;52.018;8.542;2023-03-14T16:51:25;10.80;;;3.73;;
3054;SDS011;1537;52.018;8.542;2023-03-14T16:54:50;16.27;;;5.73;;
3054;SDS011;1537;52.018;8.542;2023-03-14T16:58:14;16.00;;;3.83;;
3054;SDS011;1537;52.018;8.542;2023-03-14T17:01:37;9.53;;;3.23;;
3054;SDS011;1537;52.018;8.542;2023-03-14T17:05:03;10.10;;;4.23;;
3054;SDS011;1537;52.018;8.542;2023-03-14T17:08:27;11.43;;;3.67;;
3054;SDS011;1537;52.018;8.542;2023-03-14T17:11:53;16.87;;;3.63;;
3054;SDS011;1537;52.018;8.542;2023-03-14T17:15:17;7.77;;;3.30;;
3054;SDS011;1537;52.018;8.542;2023-03-14T17:18:40;10.47;;;3.23;;
3054;SDS011;1537;52.018;8.542;2023-03-14T17:22:04;10.83;;;4.03;;
3054;SDS011;1537;52.018;8.542;2023-03-14T17:25:44;7.37;;;3.00;;
3054;SDS011;1537;52.018;8.542;2023-03-14T17:29:10;10.87;;;3.60;;
3054;SDS011;1537;52.018;8.542;2023-03-14T17:32:33;13.17;;;4.87;;
3054;SDS011;1537;52.018;8.542;2023-03-14T17:35:57;9.13;;;3.10;;
3054;SDS011;1537;52.018;8.542;2023-03-14T17:39:20;15.60;;;3.80;;
3054;SDS011;1537;52.018;8.542;2023-03-14T17:42:44;8.30;;;3.33;;
3054;SDS011;1537;52.018;8.542;2023-03-14T17:46:09;18.63;;;5.73;;
3054;SDS011;1537;52.018;8.542;2023-03-14T17:49:35;12.00;;;4.40;;
3054;SDS011;1537;52.018;8.542;2023-03-14T17:53:00;8.10;;;3.63;;
3054;SDS011;1537;52.018;8.542;2023-03-14T17:56:24;14.63;;;5.67;;
3054;SDS011;1537;52.018;8.542;2023-03-14T17:59:48;17.63;;;5.50;;
3054;SDS011;1537;52.018;8.542;2023-03-14T18:03:16;8.53;;;3.97;;
3054;SDS011;1537;52.018;8.542;2023-03-14T18:06:39;11.70;;;6.43;;
3054;SDS011;1537;52.018;8.542;2023-03-14T18:10:05;12.47;;;6.53;;
3054;SDS011;1537;52.018;8.542;2023-03-14T18:13:31;15.20;;;8.77;;
3054;SDS011;1537;52.018;8.542;2023-03-14T18:16:54;16.50;;;8.83;;
3054;SDS011;1537;52.018;8.542;2023-03-14T18:20:20;13.90;;;8.27;;
3054;SDS011;1537;52.018;8.542;2023-03-14T18:23:43;9.83;;;6.13;;
3054;SDS011;1537;52.018;8.542;2023-03-14T18:27:09;10.67;;;6.20;;
3054;SDS011;1537;52.018;8.542;2023-03-14T18:30:32;11.03;;;5.70;;
3054;SDS011;1537;52.018;8.542;2023-03-14T18:33:56;13.50;;;7.63;;
3054;SDS011;1537;52.018;8.542;2023-03-14T18:37:22;11.33;;;6.50;;
3054;SDS011;1537;52.018;8.542;2023-03-14T18:40:45;9.80;;;4.63;;
3054;SDS011;1537;52.018;8.542;2023-03-14T18:44:09;10.07;;;4.57;;
3054;SDS011;1537;52.018;8.542;2023-03-14T18:47:33;8.50;;;4.53;;
3054;SDS011;1537;52.018;8.542;2023-03-14T18:50:57;6.87;;;4.10;;
3054;SDS011;1537;52.018;8.542;2023-03-14T18:54:23;10.50;;;4.60;;
3054;SDS011;1537;52.018;8.542;2023-03-14T18:57:47;10.00;;;4.03;;
3054;SDS011;1537;52.018;8.542;2023-03-14T19:01:10;9.23;;;3.33;;
3054;SDS011;1537;52.018;8.542;2023-03-14T19:04:34;9.87;;;4.77;;
3054;SDS011;1537;52.018;8.542;2023-03-14T19:07:58;11.90;;;4.40;;
3054;SDS011;1537;52.018;8.542;2023-03-14T19:11:25;14.13;;;5.20;;
3054;SDS011;1537;52.018;8.542;2023-03-14T19:14:48;11.60;;;4.50;;
3054;SDS011;1537;52.018;8.542;2023-03-14T19:18:13;8.20;;;3.90;;
3054;SDS011;1537;52.018;8.542;2023-03-14T19:21:37;12.83;;;5.00;;
3054;SDS011;1537;52.018;8.542;2023-03-14T19:25:01;11.37;;;5.37;;
3054;SDS011;1537;52.018;8.542;2023-03-14T19:28:28;8.23;;;3.93;;
3054;SDS011;1537;52.018;8.542;2023-03-14T19:31:53;7.30;;;3.10;;
3054;SDS011;1537;52.018;8.542;2023-03-14T19:35:16;7.37;;;3.53;;
3054;SDS011;1537;52.018;8.542;2023-03-14T19:38:40;10.70;;;4.13;;
3054;SDS011;1537;52.018;8.542;2023-03-14T19:42:03;11.20;;;4.50;;
3054;SDS011;1537;52.018;8.542;2023-03-14T19:45:28;6.60;;;3.70;;
3054;SDS011;1537;52.018;8.542;2023-03-14T19:48:54;7.57;;;3.63;;
3054;SDS011;1537;52.018;8.542;2023-03-14T19:52:18;10.07;;;3.93;;
3054;SDS011;1537;52.018;8.542;2023-03-14T19:55:42;11.73;;;4.63;;
3054;SDS011;1537;52.018;8.542;2023-03-14T19:59:07;12.17;;;3.97;;
3054;SDS011;1537;52.018;8.542;2023-03-14T20:02:32;9.53;;;3.80;;
3054;SDS011;1537;52.018;8.542;2023-03-14T20:05:57;9.40;;;4.57;;
3054;SDS011;1537;52.018;8.542;2023-03-14T20:09:25;10.03;;;4.13;;
3054;SDS011;1537;52.018;8.542;2023-03-14T20:12:49;10.90;;;3.60;;
3054;SDS011;1537;52.018;8.542;2023-03-14T20:16:13;7.10;;;3.43;;
3054;SDS011;1537;52.018;8.542;2023-03-14T20:19:38;9.50;;;3.90;;
3054;SDS011;1537;52.018;8.542;2023-03-14T20:23:02;11.90;;;4.17;;
3054;SDS011;1537;52.018;8.542;2023-03-14T20:26:26;10.40;;;3.73;;
3054;SDS011;1537;52.018;8.542;2023-03-14T20:29:49;7.10;;;3.30;;
3054;SDS011;1537;52.018;8.542;2023-03-14T20:33:18;7.47;;;3.23;;
3054;SDS011;1537;52.018;8.542;2023-03-14T20:36:43;34.00;;;14.63;;
3054;SDS011;1537;52.018;8.542;2023-03-14T20:40:10;10.70;;;5.40;;
3054;SDS011;1537;52.018;8.542;2023-03-14T20:43:34;15.43;;;8.20;;
3054;SDS011;1537;52.018;8.542;2023-03-14T20:46:58;12.83;;;4.97;;
3054;SDS011;1537;52.018;8.542;2023-03-14T20:50:24;15.83;;;5.07;;
3054;SDS011;1537;52.018;8.542;2023-03-14T20:53:49;9.47;;;5.30;;
3054;SDS011;1537;52.018;8.542;2023-03-14T20:57:13;12.27;;;4.87;;
3054;SDS011;1537;52.018;8.542;2023-03-14T21:00:37;11.83;;;3.80;;
3054;SDS011;1537;52.018;8.542;2023-03-14T21:04:02;12.03;;;7.40;;
3054;SDS011;1537;52.018;8.542;2023-03-14T21:07:28;19.80;;;9.50;;
3054;SDS011;1537;52.018;8.542;2023-03-14T21:10:58;11.33;;;5.10;;
3054;SDS011;1537;52.018;8.542;2023-03-14T21:14:24;14.47;;;5.07;;
3054;SDS011;1537;52.018;8.542;2023-03-14T21:17:48;10.63;;;3.90;;
3054;SDS011;1537;52.018;8.542;2023-03-14T21:21:16;8.10;;;3.60;;
3054;SDS011;1537;52.018;8.542;2023-03-14T21:24:45;9.47;;;3.97;;
3054;SDS011;1537;52.018;8.542;2023-03-14T21:28:12;6.63;;;3.70;;
3054;SDS011;1537;52.018;8.542;2023-03-14T21:31:37;8.93;;;5.00;;